Time;durP1;ratioP1;P1;durP2;ratioP2;P2;SDS_P1;SDS_P2;PMS_P1;PMS_P2;Temp;Humidity;BMP_temperature;BMP_pressure;BME280_temperature;BME280_humidity;BME280_pressure;Samples;Min_cycle;Max_cycle;Signal;HPM_P1;HPM_P2
2020/12/28 00:01:06;;;;;;;15.25;12.57;;;-4.30;77.90;;;;;;4919443;29;20059;-77
2020/12/28 00:03:32;;;;;;;14.88;10.63;;;-4.30;77.90;;;;;;4920680;29;20028;-79
2020/12/28 00:05:57;;;;;;;15.48;9.63;;;-4.40;78.00;;;;;;4915063;29;20042;-77
2020/12/28 00:08:23;;;;;;;14.45;10.30;;;-4.40;78.00;;;;;;4915719;29;20017;-78
2020/12/28 00:10:49;;;;;;;18.10;10.88;;;-4.60;77.70;;;;;;4914890;29;20421;-78
2020/12/28 00:13:15;;;;;;;15.07;10.88;;;-4.80;78.20;;;;;;4918269;29;20072;-78
2020/12/28 00:15:41;;;;;;;16.42;11.57;;;-4.80;78.80;;;;;;4918640;29;20020;-76
2020/12/28 00:18:06;;;;;;;16.90;11.85;;;-5.00;79.00;;;;;;4918889;29;20115;-79
2020/12/28 00:20:32;;;;;;;15.18;13.10;;;-5.10;79.90;;;;;;4903840;29;20032;-78
2020/12/28 00:22:58;;;;;;;17.08;10.73;;;-5.00;79.90;;;;;;4895992;29;20028;-79
2020/12/28 00:25:25;;;;;;;15.77;8.55;;;-5.00;79.90;;;;;;4918228;29;20494;-78
2020/12/28 00:27:52;;;;;;;14.52;10.75;;;-5.00;79.80;;;;;;4920990;29;20492;-78
2020/12/28 00:30:19;;;;;;;16.23;10.40;;;-5.10;80.10;;;;;;4936836;29;20028;-78
2020/12/28 00:32:45;;;;;;;17.40;10.00;;;-5.20;80.70;;;;;;4937063;29;20035;-78
2020/12/28 00:35:11;;;;;;;19.35;11.30;;;-5.20;80.60;;;;;;4936633;29;20505;-78
2020/12/28 00:37:37;;;;;;;15.57;8.32;;;-5.20;81.00;;;;;;4936896;29;20095;-78
2020/12/28 00:40:05;;;;;;;16.77;9.18;;;-5.10;80.90;;;;;;4936638;29;20020;-78
2020/12/28 00:42:31;;;;;;;14.20;11.35;;;-5.30;80.90;;;;;;4919448;29;20038;-77
2020/12/28 00:44:58;;;;;;;16.98;11.02;;;-5.40;81.60;;;;;;4939940;29;20095;-77
2020/12/28 00:47:24;;;;;;;14.48;10.15;;;-5.30;81.80;;;;;;4936541;29;20028;-78
2020/12/28 00:49:49;;;;;;;15.27;8.98;;;-5.30;81.50;;;;;;4936581;29;20030;-78
2020/12/28 00:52:15;;;;;;;15.52;10.93;;;-5.30;81.30;;;;;;4936568;29;20020;-77
2020/12/28 00:54:41;;;;;;;10.32;5.88;;;-5.40;81.50;;;;;;4936553;29;20031;-77
2020/12/28 00:57:07;;;;;;;13.88;8.15;;;-5.50;81.50;;;;;;4922475;29;20019;-77
2020/12/28 00:59:33;;;;;;;15.82;8.43;;;-5.70;81.90;;;;;;4937101;29;20062;-76
2020/12/28 01:01:59;;;;;;;10.68;7.55;;;-5.80;82.40;;;;;;4935488;29;20545;-77
2020/12/28 01:04:25;;;;;;;15.32;8.60;;;-5.80;82.80;;;;;;4919252;29;20019;-78
2020/12/28 01:06:51;;;;;;;13.23;7.70;;;-5.80;83.00;;;;;;4919289;29;20023;-77
2020/12/28 01:09:17;;;;;;;16.17;9.32;;;-5.80;83.20;;;;;;4919241;29;20031;-80
2020/12/28 01:11:44;;;;;;;9.48;6.28;;;-5.70;83.30;;;;;;4936322;29;20020;-80
2020/12/28 01:14:13;;;;;;;13.23;8.10;;;-5.80;83.30;;;;;;4936383;29;20027;-78
2020/12/28 01:16:42;;;;;;;11.20;8.27;;;-5.90;83.70;;;;;;4936053;29;20269;-79
2020/12/28 01:19:08;;;;;;;12.15;8.63;;;-5.90;84.00;;;;;;4919018;29;20028;-79
2020/12/28 01:21:34;;;;;;;14.32;8.35;;;-5.90;84.20;;;;;;4935836;29;20370;-81
2020/12/28 01:23:59;;;;;;;12.57;7.70;;;-5.80;84.20;;;;;;4936225;29;20050;-78
2020/12/28 01:26:25;;;;;;;14.55;9.15;;;-5.70;84.00;;;;;;4936155;29;20087;-79
2020/12/28 01:28:51;;;;;;;13.68;9.18;;;-5.70;84.10;;;;;;4934789;29;20046;-76
2020/12/28 01:31:17;;;;;;;12.75;7.03;;;-5.60;84.10;;;;;;4923638;29;20047;-77
2020/12/28 01:33:43;;;;;;;14.70;8.23;;;-5.50;83.60;;;;;;4938297;29;20024;-76
2020/12/28 01:36:09;;;;;;;14.00;8.73;;;-5.50;83.40;;;;;;4937220;29;20020;-78
2020/12/28 01:38:35;;;;;;;12.77;9.13;;;-5.50;83.40;;;;;;4935675;29;20030;-76
2020/12/28 01:41:01;;;;;;;12.82;8.63;;;-5.50;83.40;;;;;;4935890;29;20039;-77
2020/12/28 01:43:28;;;;;;;11.23;8.30;;;-5.40;83.50;;;;;;4937330;29;20108;-80
2020/12/28 01:45:54;;;;;;;;;;;-5.40;83.40;;;;;;4937065;29;20370;-78
2020/12/28 01:48:20;;;;;;;12.20;7.97;;;-5.40;83.20;;;;;;4935700;29;19913;-79
2020/12/28 01:50:46;;;;;;;13.80;10.32;;;-5.40;83.10;;;;;;4935593;29;20055;-78
2020/12/28 01:53:14;;;;;;;11.25;8.40;;;-5.40;83.20;;;;;;4935703;29;20359;-77
2020/12/28 01:55:43;;;;;;;14.02;8.48;;;-5.30;83.10;;;;;;4935462;29;20028;-78
2020/12/28 01:58:09;;;;;;;13.60;9.80;;;-5.30;83.00;;;;;;4935518;29;20034;-76
2020/12/28 02:00:35;;;;;;;10.25;7.57;;;-5.30;83.00;;;;;;4935536;29;20025;-77
2020/12/28 02:03:01;;;;;;;9.75;8.02;;;-5.30;82.90;;;;;;4935556;29;20392;-79
2020/12/28 02:05:27;;;;;;;9.40;6.85;;;-5.30;82.90;;;;;;4935614;29;20103;-79
2020/12/28 02:07:55;;;;;;;11.88;8.15;;;-5.30;82.80;;;;;;4935523;29;20062;-78
2020/12/28 02:10:21;;;;;;;15.18;9.43;;;-5.40;83.00;;;;;;4935670;29;20024;-76
2020/12/28 02:12:46;;;;;;;13.57;8.57;;;-5.30;83.20;;;;;;4936077;29;20075;-77
2020/12/28 02:15:12;;;;;;;14.07;8.43;;;-5.30;83.00;;;;;;4935664;29;20023;-78
2020/12/28 02:17:38;;;;;;;10.63;7.38;;;-5.20;83.10;;;;;;4935953;29;20496;-78
2020/12/28 02:20:04;;;;;;;10.55;7.68;;;-5.20;82.90;;;;;;4935412;29;20039;-77
2020/12/28 02:22:30;;;;;;;12.02;8.60;;;-5.20;83.10;;;;;;4935909;29;20059;-76
2020/12/28 02:24:56;;;;;;;12.77;9.02;;;-5.20;83.10;;;;;;4918317;29;20075;-78
2020/12/28 02:27:21;;;;;;;11.60;8.10;;;-5.10;83.00;;;;;;4932651;29;20157;-77
2020/12/28 02:29:47;;;;;;;13.32;8.88;;;-5.20;82.90;;;;;;4917258;29;20446;-77
2020/12/28 02:32:13;;;;;;;13.02;9.00;;;-5.20;82.70;;;;;;4916412;29;20024;-78
2020/12/28 02:34:39;;;;;;;12.52;7.88;;;-5.30;82.70;;;;;;4899537;29;20115;-78
2020/12/28 02:37:05;;;;;;;11.38;8.40;;;-5.40;83.10;;;;;;4899233;29;20110;-77
2020/12/28 02:39:30;;;;;;;13.90;8.25;;;-5.50;83.30;;;;;;4916433;29;20035;-78
2020/12/28 02:41:56;;;;;;;10.50;7.50;;;-5.60;83.60;;;;;;4916128;29;20072;-80
2020/12/28 02:44:22;;;;;;;13.38;7.70;;;-5.70;84.00;;;;;;4916119;29;20020;-79
2020/12/28 02:46:48;;;;;;;11.48;7.78;;;-5.80;84.20;;;;;;4916558;29;20084;-77
2020/12/28 02:49:13;;;;;;;10.95;8.02;;;-5.80;84.70;;;;;;4916345;29;20521;-78
2020/12/28 02:51:39;;;;;;;12.85;9.13;;;-5.80;85.20;;;;;;4916448;29;20060;-77
2020/12/28 02:54:05;;;;;;;14.93;9.05;;;-5.80;85.50;;;;;;4916157;29;20048;-77
2020/12/28 02:56:31;;;;;;;13.10;9.88;;;-5.80;85.50;;;;;;4916191;29;20032;-77
2020/12/28 02:58:57;;;;;;;12.75;8.18;;;-5.80;85.50;;;;;;4910822;29;20024;-80
2020/12/28 03:01:22;;;;;;;13.63;8.52;;;-5.70;85.80;;;;;;4916001;29;20068;-78
2020/12/28 03:03:48;;;;;;;18.55;9.68;;;-5.60;85.60;;;;;;4916169;29;20464;-77
2020/12/28 03:06:14;;;;;;;13.60;8.70;;;-5.50;85.40;;;;;;4916124;29;20102;-78
2020/12/28 03:08:40;;;;;;;11.85;9.35;;;-5.40;85.30;;;;;;4916201;29;20033;-77
2020/12/28 03:11:05;;;;;;;12.88;8.63;;;-5.30;85.10;;;;;;4916074;29;20087;-79
2020/12/28 03:13:31;;;;;;;17.02;11.35;;;-5.20;84.70;;;;;;4916333;29;20067;-79
2020/12/28 03:15:57;;;;;;;12.52;8.55;;;-5.20;84.70;;;;;;4916294;29;20084;-77
2020/12/28 03:18:23;;;;;;;10.25;8.15;;;-5.10;84.80;;;;;;4915900;29;20056;-78
2020/12/28 03:20:49;;;;;;;13.70;8.32;;;-5.10;84.50;;;;;;4916281;29;20100;-77
2020/12/28 03:23:15;;;;;;;11.65;8.05;;;-5.00;84.60;;;;;;4916816;29;20164;-76
2020/12/28 03:25:41;;;;;;;11.63;9.40;;;-5.10;84.20;;;;;;4916765;29;20422;-77
2020/12/28 03:28:07;;;;;;;13.15;8.38;;;-5.10;84.40;;;;;;4924053;29;20051;-79
2020/12/28 03:30:32;;;;;;;15.50;8.88;;;-5.00;84.40;;;;;;4938879;29;20099;-76
2020/12/28 03:32:58;;;;;;;10.60;7.70;;;-5.00;84.40;;;;;;4942379;29;20456;-79
2020/12/28 03:35:25;;;;;;;16.80;10.13;;;-5.00;84.40;;;;;;4940275;29;20027;-79
2020/12/28 03:37:51;;;;;;;15.10;6.70;;;-5.10;84.70;;;;;;4938266;29;20116;-79
2020/12/28 03:40:17;;;;;;;12.40;8.73;;;-5.10;84.80;;;;;;4937928;29;20726;-77
2020/12/28 03:42:42;;;;;;;13.63;8.25;;;-5.20;85.10;;;;;;4937944;29;20092;-77
2020/12/28 03:45:08;;;;;;;17.90;9.77;;;-5.30;85.20;;;;;;4941215;29;20548;-79
2020/12/28 03:47:34;;;;;;;14.63;8.32;;;-5.30;85.70;;;;;;4937652;29;20063;-76
2020/12/28 03:50:00;;;;;;;13.15;9.75;;;-5.30;85.80;;;;;;4937755;29;20023;-79
2020/12/28 03:52:26;;;;;;;13.73;8.73;;;-5.40;85.90;;;;;;4937948;29;20059;-79
2020/12/28 03:54:51;;;;;;;16.08;11.18;;;-5.40;86.10;;;;;;4937942;29;20416;-79
2020/12/28 03:57:17;;;;;;;13.00;8.85;;;-5.30;86.40;;;;;;4937703;29;20039;-78
2020/12/28 03:59:43;;;;;;;15.95;9.90;;;-5.30;86.10;;;;;;4937784;29;20079;-79
2020/12/28 04:02:09;;;;;;;13.63;8.80;;;-5.30;86.00;;;;;;4937736;29;20469;-79
2020/12/28 04:04:34;;;;;;;16.50;10.77;;;-5.30;86.20;;;;;;4937773;29;20039;-78
2020/12/28 04:07:00;;;;;;;12.88;8.68;;;-5.20;86.20;;;;;;4937861;29;20095;-79
2020/12/28 04:09:26;;;;;;;18.08;11.02;;;-5.10;86.30;;;;;;4937649;29;20103;-80
2020/12/28 04:11:54;;;;;;;18.50;11.75;;;-5.10;86.10;;;;;;4937654;29;20024;-78
2020/12/28 04:14:20;;;;;;;19.08;12.82;;;-5.10;85.80;;;;;;4938055;29;20370;-79
2020/12/28 04:16:46;;;;;;;15.27;10.98;;;-5.10;86.00;;;;;;4937558;29;20027;-77
2020/12/28 04:19:12;;;;;;;21.30;12.43;;;-5.10;85.70;;;;;;4937218;29;20111;-77
2020/12/28 04:21:38;;;;;;;16.35;12.30;;;-5.00;85.80;;;;;;4937104;29;20148;-77
2020/12/28 04:24:04;;;;;;;20.25;14.23;;;-5.00;85.70;;;;;;4937526;29;20035;-78
2020/12/28 04:26:29;;;;;;;16.88;11.32;;;-5.00;85.50;;;;;;4937258;29;20028;-78
2020/12/28 04:28:55;;;;;;;19.17;12.25;;;-5.10;85.30;;;;;;4936828;29;20128;-77
2020/12/28 04:31:21;;;;;;;17.80;11.48;;;-5.20;85.70;;;;;;4937401;29;20031;-79
2020/12/28 04:33:47;;;;;;;21.25;13.55;;;-5.30;85.60;;;;;;4937173;29;20507;-78
2020/12/28 04:36:13;;;;;;;19.80;13.52;;;-5.20;86.00;;;;;;4936941;29;20024;-79
2020/12/28 04:38:39;;;;;;;18.55;12.98;;;-5.20;86.00;;;;;;4936695;29;20492;-79
2020/12/28 04:41:05;;;;;;;24.00;14.77;;;-5.10;85.90;;;;;;4936473;29;20028;-78
2020/12/28 04:43:30;;;;;;;24.95;13.98;;;-5.00;85.70;;;;;;4939106;29;20020;-78
2020/12/28 04:46:02;;;;;;;20.85;13.70;;;-4.90;85.50;;;;;;4937430;29;20030;-79
2020/12/28 04:48:33;;;;;;;21.58;14.20;;;-4.90;85.40;;;;;;4919575;29;20091;-78
2020/12/28 04:51:01;;;;;;;19.30;14.25;;;-4.80;85.20;;;;;;4936610;29;20023;-78
2020/12/28 04:53:28;;;;;;;;;;;-4.70;85.00;;;;;;4937253;29;20023;-78
2020/12/28 04:55:54;;;;;;;16.10;11.98;;;-4.70;84.80;;;;;;4936596;29;19915;-77
2020/12/28 04:58:20;;;;;;;21.15;12.25;;;-4.70;84.70;;;;;;4936929;29;20504;-77
2020/12/28 05:00:46;;;;;;;19.40;12.60;;;-4.80;84.50;;;;;;4906808;29;20031;-77
2020/12/28 05:03:13;;;;;;;21.65;12.55;;;-4.90;84.50;;;;;;4936518;29;20345;-79
2020/12/28 05:05:48;;;;;;;18.52;12.45;;;-5.10;84.40;;;;;;4936708;29;20024;-79
2020/12/28 05:08:14;;;;;;;20.80;13.68;;;-5.30;85.10;;;;;;4936494;29;20038;-78
2020/12/28 05:10:39;;;;;;;19.30;13.52;;;-5.30;85.40;;;;;;4936405;29;20028;-77
2020/12/28 05:13:09;;;;;;;16.15;10.82;;;-5.30;85.50;;;;;;4936349;29;20465;-79
2020/12/28 05:15:44;;;;;;;18.98;13.00;;;-5.20;85.70;;;;;;4943458;29;20031;-79
2020/12/28 05:18:12;;;;;;;21.75;13.68;;;-5.30;85.70;;;;;;4941448;29;20034;-79
2020/12/28 05:20:43;;;;;;;16.35;11.40;;;-5.20;86.00;;;;;;4918984;29;20084;-79
2020/12/28 05:23:09;;;;;;;23.75;15.05;;;-5.10;85.80;;;;;;4927841;29;20413;-80
2020/12/28 05:25:35;;;;;;;17.63;11.82;;;-5.20;85.60;;;;;;4935788;29;20042;-79
2020/12/28 05:28:03;;;;;;;19.52;12.65;;;-5.10;85.90;;;;;;4936341;29;20066;-81
2020/12/28 05:30:33;;;;;;;20.33;12.15;;;-5.00;85.80;;;;;;4936057;29;20107;-79
2020/12/28 05:33:05;;;;;;;19.85;13.35;;;-5.20;85.50;;;;;;4936497;29;20058;-80
2020/12/28 05:35:32;;;;;;;23.73;15.25;;;-5.30;86.10;;;;;;4940912;29;20112;-80
2020/12/28 05:38:01;;;;;;;22.33;12.05;;;-5.30;86.50;;;;;;4940912;29;20020;-79
2020/12/28 05:40:27;;;;;;;20.80;13.40;;;-5.20;86.60;;;;;;4919085;29;20119;-79
2020/12/28 05:42:54;;;;;;;25.83;13.85;;;-5.20;86.50;;;;;;4936030;29;20103;-80
2020/12/28 05:45:20;;;;;;;21.50;14.02;;;-5.30;86.60;;;;;;4935052;29;20047;-81
2020/12/28 05:47:55;;;;;;;21.17;13.77;;;-5.30;87.10;;;;;;4935670;29;20138;-80
2020/12/28 05:50:31;;;;;;;18.48;12.68;;;-5.20;87.40;;;;;;4935498;29;20030;-81
2020/12/28 05:52:58;;;;;;;19.90;13.50;;;-5.10;87.40;;;;;;4935909;29;20031;-79
2020/12/28 05:55:26;;;;;;;22.30;14.20;;;-5.10;87.30;;;;;;4935692;29;20031;-78
2020/12/28 05:57:54;;;;;;;22.08;13.77;;;-5.10;87.50;;;;;;4917883;29;20030;-78
2020/12/28 06:00:21;;;;;;;19.02;11.82;;;-5.10;87.60;;;;;;4935645;29;20084;-79
2020/12/28 06:02:47;;;;;;;24.92;14.23;;;-5.20;87.50;;;;;;4935527;29;20023;-78
2020/12/28 06:05:15;;;;;;;19.75;13.00;;;-5.20;87.80;;;;;;4934843;29;20028;-78
2020/12/28 06:07:41;;;;;;;25.98;13.98;;;-5.10;88.10;;;;;;4934663;29;20422;-79
2020/12/28 06:10:09;;;;;;;24.80;14.10;;;-5.10;88.10;;;;;;4918266;29;20027;-79
2020/12/28 06:12:35;;;;;;;23.25;13.75;;;-5.10;87.70;;;;;;4935972;29;20115;-79
2020/12/28 06:15:01;;;;;;;20.80;13.63;;;-5.00;87.60;;;;;;4935817;29;20024;-81
2020/12/28 06:17:36;;;;;;;21.27;13.65;;;-5.10;87.60;;;;;;4935474;29;20457;-77
2020/12/28 06:20:07;;;;;;;24.05;14.32;;;-5.10;87.70;;;;;;4924972;29;20143;-80
2020/12/28 06:22:34;;;;;;;21.13;14.63;;;-5.10;87.80;;;;;;4920380;29;20490;-80
2020/12/28 06:25:01;;;;;;;;;;;-5.10;87.60;;;;;;4934037;29;20043;-81
2020/12/28 06:27:35;;;;;;;24.08;13.60;;;-5.10;87.50;;;;;;4934963;29;20390;-82
2020/12/28 06:30:10;;;;;;;24.92;14.68;;;-5.20;87.50;;;;;;4935548;29;20040;-80
2020/12/28 06:32:36;;;;;;;22.60;13.50;;;-5.20;87.40;;;;;;4934915;29;20107;-82
2020/12/28 06:35:11;;;;;;;22.23;14.02;;;-5.30;87.70;;;;;;4936822;29;20390;-80
2020/12/28 06:37:59;;;;;;;23.70;13.98;;;-5.30;87.90;;;;;;4918548;29;20030;-81
2020/12/28 06:40:33;;;;;;;25.35;14.32;;;-5.20;88.10;;;;;;4936317;29;20019;-81
2020/12/28 06:43:10;;;;;;;20.20;13.55;;;-5.20;88.20;;;;;;4919434;29;20075;-80
2020/12/28 06:45:40;;;;;;;26.63;16.98;;;-5.10;88.10;;;;;;4936042;29;20016;-82
2020/12/28 06:48:26;;;;;;;19.13;11.80;;;-5.00;88.20;;;;;;4918381;29;20515;-82
2020/12/28 06:50:53;;;;;;;26.48;15.23;;;-5.40;87.70;;;;;;4935464;29;20047;-83
2020/12/28 06:53:24;;;;;;;25.30;15.18;;;-5.60;88.70;;;;;;4934956;29;20471;-80
2020/12/28 06:55:50;;;;;;;32.25;19.27;;;-5.50;89.50;;;;;;4934887;29;20034;-81
2020/12/28 06:58:21;;;;;;;28.75;16.75;;;-5.50;89.70;;;;;;4917715;29;20035;-82
2020/12/28 07:00:50;;;;;;;34.40;20.73;;;-5.40;89.80;;;;;;4918768;29;20363;-81
2020/12/28 07:03:17;;;;;;;38.33;22.35;;;-5.30;89.70;;;;;;4938444;29;20032;-83
2020/12/28 07:05:44;;;;;;;37.08;21.20;;;-5.30;89.40;;;;;;4938315;29;20016;-81
2020/12/28 07:08:24;;;;;;;40.57;23.40;;;-5.30;89.50;;;;;;4920974;29;20063;-82
2020/12/28 07:11:02;;;;;;;42.58;22.40;;;-5.30;89.70;;;;;;4922264;29;20028;-82
2020/12/28 07:13:29;;;;;;;45.83;24.85;;;-5.20;89.80;;;;;;4938755;29;20090;-81
2020/12/28 07:16:06;;;;;;;43.92;23.17;;;-5.10;89.80;;;;;;4921374;29;20484;-82
2020/12/28 07:18:36;;;;;;;31.85;19.27;;;-5.00;89.60;;;;;;4939997;29;20133;-83
2020/12/28 07:21:03;;;;;;;40.95;21.95;;;-5.10;88.80;;;;;;4934811;29;20067;-81
2020/12/28 07:23:31;;;;;;;40.75;23.77;;;-5.20;89.10;;;;;;4940451;29;20047;-81
2020/12/28 07:26:03;;;;;;;;;;;-5.30;89.20;;;;;;4941327;29;20147;-80
2020/12/28 07:28:30;;;;;;;45.30;25.65;;;-5.20;89.50;;;;;;4939417;29;19923;-82
2020/12/28 07:30:59;;;;;;;46.08;25.33;;;-5.10;89.40;;;;;;4950445;29;20106;-83
2020/12/28 07:33:25;;;;;;;41.60;23.80;;;-5.00;89.20;;;;;;4921464;29;20123;-81
2020/12/28 07:36:24;;;;;;;46.13;24.65;;;-4.80;89.00;;;;;;4939246;29;20020;-82
2020/12/28 07:38:50;;;;;;;39.00;24.52;;;-4.70;88.60;;;;;;4940778;29;20032;-81
2020/12/28 07:41:23;;;;;;;44.17;21.23;;;-4.70;88.20;;;;;;4943307;29;20432;-81
2020/12/28 07:43:53;;;;;;;38.83;21.58;;;-4.60;87.90;;;;;;4933953;29;20017;-82
2020/12/28 07:46:31;;;;;;;37.28;22.02;;;-4.50;87.70;;;;;;4938031;29;20036;-83
2020/12/28 07:49:04;;;;;;;39.25;22.33;;;-4.50;87.20;;;;;;4937865;29;20082;-83
2020/12/28 07:51:33;;;;;;;38.67;20.50;;;-4.60;86.80;;;;;;4941862;29;20027;-82
2020/12/28 07:54:48;;;;;;;38.00;21.40;;;-4.60;86.60;;;;;;4925138;29;20481;-82
2020/12/28 07:57:39;;;;;;;42.35;22.52;;;-4.60;86.20;;;;;;4879025;29;20043;-82
2020/12/28 08:00:07;;;;;;;38.90;22.83;;;-4.60;86.30;;;;;;4891809;29;20100;-81
2020/12/28 08:02:48;;;;;;;46.42;27.45;;;-4.50;86.90;;;;;;4937427;29;20039;-81
2020/12/28 08:05:17;;;;;;;40.53;22.77;;;-4.50;86.20;;;;;;4937687;29;20425;-82
2020/12/28 08:07:43;;;;;;;33.10;20.35;;;-4.50;85.70;;;;;;4937599;29;20114;-81
2020/12/28 08:10:10;;;;;;;42.50;20.88;;;-4.40;85.40;;;;;;4938693;29;20099;-81
2020/12/28 08:12:41;;;;;;;38.25;20.73;;;-4.30;85.80;;;;;;4921008;29;20024;-80
2020/12/28 08:15:07;;;;;;;41.75;23.92;;;-4.30;85.30;;;;;;4937983;29;20054;-82
2020/12/28 08:17:33;;;;;;;43.22;24.50;;;-4.30;84.80;;;;;;4937473;29;20046;-79
2020/12/28 08:20:13;;;;;;;33.97;21.95;;;-4.20;84.40;;;;;;4936608;29;20028;-81
2020/12/28 08:22:40;;;;;;;37.40;20.02;;;-4.10;83.90;;;;;;4937967;29;20042;-82
2020/12/28 08:25:08;;;;;;;37.75;21.35;;;-4.10;83.80;;;;;;4920019;29;20031;-81
2020/12/28 08:27:34;;;;;;;33.10;18.83;;;-4.00;83.70;;;;;;4920934;29;20035;-81
2020/12/28 08:30:04;;;;;;;26.92;16.85;;;-3.80;83.80;;;;;;4936963;29;20046;-81
2020/12/28 08:32:31;;;;;;;27.88;15.82;;;-3.80;82.80;;;;;;4936855;29;20055;-81
2020/12/28 08:34:58;;;;;;;25.77;16.55;;;-3.60;82.80;;;;;;4948681;29;20472;-81
2020/12/28 08:37:25;;;;;;;25.67;15.88;;;-3.30;83.30;;;;;;4920660;29;20038;-81
2020/12/28 08:39:52;;;;;;;26.73;16.80;;;-3.00;82.10;;;;;;4936826;29;20107;-82
2020/12/28 08:42:32;;;;;;;22.38;13.77;;;-2.90;80.80;;;;;;4919466;29;20028;-83
2020/12/28 08:45:01;;;;;;;27.23;15.02;;;-3.00;79.50;;;;;;4939788;29;20031;-81
2020/12/28 08:47:32;;;;;;;22.38;14.20;;;-3.00;79.70;;;;;;4918829;29;20488;-82
2020/12/28 08:49:58;;;;;;;19.02;12.95;;;-3.00;79.60;;;;;;4936533;29;20024;-80
2020/12/28 08:52:24;;;;;;;21.33;13.82;;;-2.90;79.10;;;;;;4936145;29;20032;-81
2020/12/28 08:54:55;;;;;;;29.38;15.02;;;-2.80;78.90;;;;;;4936912;29;20445;-81
2020/12/28 08:57:28;;;;;;;20.45;13.52;;;-2.70;78.40;;;;;;4919902;29;20055;-81
2020/12/28 08:59:56;;;;;;;23.75;14.45;;;-2.60;77.60;;;;;;4919861;29;20055;-80
2020/12/28 09:02:22;;;;;;;;;;;-2.40;77.40;;;;;;4936867;29;20042;-80
2020/12/28 09:04:49;;;;;;;16.77;12.65;;;-2.30;77.60;;;;;;4936609;29;19906;-81
2020/12/28 09:07:16;;;;;;;18.65;12.82;;;-2.20;77.00;;;;;;4919007;29;20031;-82
2020/12/28 09:09:43;;;;;;;18.33;13.35;;;-2.00;76.50;;;;;;4936170;29;20079;-82
2020/12/28 09:12:10;;;;;;;19.08;12.68;;;-1.70;76.30;;;;;;4919148;29;20107;-82
2020/12/28 09:14:36;;;;;;;16.83;11.93;;;-1.30;75.70;;;;;;4936124;29;20027;-81
2020/12/28 09:17:03;;;;;;;17.35;13.88;;;-1.20;74.00;;;;;;4931728;29;20053;-82
2020/12/28 09:19:29;;;;;;;13.63;9.48;;;-0.90;73.50;;;;;;4938239;29;20368;-81
2020/12/28 09:21:56;;;;;;;20.08;12.25;;;-0.70;72.10;;;;;;4938703;29;20035;-81
2020/12/28 09:24:23;;;;;;;17.40;12.75;;;-0.90;70.80;;;;;;4935514;29;20095;-81
2020/12/28 09:26:52;;;;;;;14.93;11.80;;;-0.90;70.90;;;;;;4949559;29;20103;-82
2020/12/28 09:29:18;;;;;;;22.90;13.85;;;-1.00;70.30;;;;;;4936403;29;20274;-82
2020/12/28 09:31:43;;;;;;;13.27;10.93;;;-0.90;70.60;;;;;;4936061;29;20536;-82
2020/12/28 09:34:09;;;;;;;16.63;10.32;;;-0.90;70.20;;;;;;4936123;29;20016;-80
2020/12/28 09:36:35;;;;;;;21.65;12.95;;;-1.10;69.80;;;;;;4936558;29;20066;-82
2020/12/28 09:39:04;;;;;;;16.73;10.07;;;-1.30;69.80;;;;;;4937077;29;20469;-81
2020/12/28 09:41:30;;;;;;;16.13;10.77;;;-1.70;70.10;;;;;;4948351;29;20050;-81
2020/12/28 09:43:56;;;;;;;56.05;30.92;;;-2.10;70.70;;;;;;4944366;29;20393;-81
2020/12/28 09:46:22;;;;;;;22.92;11.80;;;-2.50;71.50;;;;;;4919305;29;20028;-81
2020/12/28 09:48:49;;;;;;;21.63;11.90;;;-2.60;72.40;;;;;;4935676;29;20138;-82
2020/12/28 09:51:16;;;;;;;16.08;11.10;;;-2.90;72.80;;;;;;4918743;29;20052;-84
2020/12/28 09:53:42;;;;;;;16.33;10.55;;;-3.00;73.50;;;;;;4935609;29;20112;-81
2020/12/28 09:56:09;;;;;;;16.25;11.23;;;-3.20;73.90;;;;;;4936561;29;20023;-84
2020/12/28 09:58:36;;;;;;;17.77;11.23;;;-3.30;74.30;;;;;;4936973;29;20372;-80
2020/12/28 10:01:06;;;;;;;17.25;10.80;;;-3.40;74.80;;;;;;4926072;29;20035;-82
2020/12/28 10:03:32;;;;;;;16.63;10.80;;;-3.40;75.10;;;;;;4946661;29;20023;-81
2020/12/28 10:05:58;;;;;;;21.23;12.35;;;-3.40;75.40;;;;;;4938020;29;20059;-80
2020/12/28 10:08:24;;;;;;;17.52;11.40;;;-3.40;75.80;;;;;;4947926;29;20037;-83
2020/12/28 10:10:50;;;;;;;20.00;10.95;;;-2.90;77.10;;;;;;4936342;29;20020;-81
2020/12/28 10:13:16;;;;;;;18.92;10.45;;;-2.10;77.30;;;;;;4921257;29;20027;-81
2020/12/28 10:15:45;;;;;;;15.95;11.15;;;-1.50;74.80;;;;;;4933469;29;20020;-81
2020/12/28 10:18:23;;;;;;;20.50;11.93;;;-0.90;72.90;;;;;;4914500;29;20035;-82
2020/12/28 10:20:52;;;;;;;15.70;10.25;;;-0.20;71.10;;;;;;4936960;29;20027;-81
2020/12/28 10:23:17;;;;;;;19.40;11.50;;;0.50;70.00;;;;;;4937035;29;20076;-81
2020/12/28 10:25:44;;;;;;;16.48;11.68;;;1.30;68.90;;;;;;4918115;29;20067;-82
2020/12/28 10:28:11;;;;;;;15.90;11.15;;;2.20;67.60;;;;;;4935696;29;20046;-85
2020/12/28 10:30:36;;;;;;;16.75;11.85;;;2.90;64.70;;;;;;4936274;29;20034;-83
2020/12/28 10:33:02;;;;;;;16.08;11.27;;;2.90;62.20;;;;;;4935259;29;20024;-81
2020/12/28 10:35:28;;;;;;;19.42;12.25;;;2.00;60.00;;;;;;4938085;29;20027;-83
2020/12/28 10:38:08;;;;;;;19.75;12.10;;;1.30;61.50;;;;;;4938716;29;20390;-80
2020/12/28 10:40:34;;;;;;;18.63;11.98;;;0.60;62.30;;;;;;4922300;29;20032;-83
2020/12/28 10:43:11;;;;;;;18.77;13.25;;;0.20;62.90;;;;;;4939133;29;20031;-82
2020/12/28 10:45:36;;;;;;;16.10;11.07;;;-0.30;63.70;;;;;;4921328;29;20063;-82
2020/12/28 10:48:05;;;;;;;17.63;11.02;;;-0.80;64.70;;;;;;4939029;29;20063;-82
2020/12/28 10:50:31;;;;;;;21.02;10.95;;;-1.30;65.80;;;;;;4939072;29;20070;-82
2020/12/28 10:52:56;;;;;;;15.27;11.63;;;-1.60;66.90;;;;;;4940641;29;20433;-82
2020/12/28 10:55:23;;;;;;;15.52;11.38;;;-1.90;67.60;;;;;;4938959;29;20024;-80
2020/12/28 10:57:49;;;;;;;17.88;11.73;;;-2.30;68.50;;;;;;4939237;29;20039;-82
2020/12/28 11:00:14;;;;;;;24.58;12.15;;;-2.50;69.30;;;;;;4939755;29;20023;-81
2020/12/28 11:02:40;;;;;;;16.13;10.77;;;-2.70;70.00;;;;;;4922841;29;20055;-80
2020/12/28 11:05:08;;;;;;;20.63;12.70;;;-2.70;70.70;;;;;;4940255;29;20102;-81
2020/12/28 11:07:34;;;;;;;18.73;11.13;;;-2.80;71.20;;;;;;4940105;29;20032;-81
2020/12/28 11:10:00;;;;;;;19.25;10.38;;;-2.80;71.70;;;;;;4941868;29;20045;-84
2020/12/28 11:12:26;;;;;;;15.82;11.32;;;-2.80;72.00;;;;;;4941492;29;20102;-81
2020/12/28 11:14:55;;;;;;;22.60;12.63;;;-2.70;72.10;;;;;;4932505;29;20375;-82
2020/12/28 11:17:20;;;;;;;20.40;11.80;;;-2.60;72.20;;;;;;4952134;29;20036;-83
2020/12/28 11:19:46;;;;;;;19.25;11.13;;;-2.60;72.20;;;;;;4921094;29;20098;-83
2020/12/28 11:22:12;;;;;;;20.42;11.75;;;-2.60;72.30;;;;;;4920803;29;20032;-82
2020/12/28 11:24:38;;;;;;;17.73;11.25;;;-2.70;72.20;;;;;;4920756;29;20504;-83
2020/12/28 11:27:04;;;;;;;21.25;12.52;;;-2.80;72.20;;;;;;4938132;29;20031;-82
2020/12/28 11:29:30;;;;;;;21.50;11.50;;;-2.90;72.60;;;;;;4938373;29;20035;-83
2020/12/28 11:31:55;;;;;;;23.92;12.90;;;-3.00;73.10;;;;;;4938573;29;20038;-82
2020/12/28 11:34:33;;;;;;;16.80;11.60;;;-3.20;73.30;;;;;;4938646;29;20023;-82
2020/12/28 11:36:59;;;;;;;19.52;11.68;;;-3.30;73.80;;;;;;4921765;29;20035;-81
2020/12/28 11:39:30;;;;;;;19.42;12.18;;;-3.30;74.10;;;;;;4939191;29;20038;-81
2020/12/28 11:41:56;;;;;;;14.23;11.88;;;-3.40;74.20;;;;;;4939400;29;20118;-82
2020/12/28 11:44:22;;;;;;;28.83;15.32;;;-3.50;74.50;;;;;;4942510;29;20020;-81
2020/12/28 11:46:50;;;;;;;19.60;13.07;;;-3.60;74.90;;;;;;4943388;29;20055;-81
2020/12/28 11:49:19;;;;;;;20.70;12.77;;;-3.60;75.10;;;;;;4941296;29;20023;-81
2020/12/28 11:51:45;;;;;;;22.55;13.07;;;-3.70;75.20;;;;;;4938685;29;20055;-81
2020/12/28 11:54:11;;;;;;;26.05;14.38;;;-3.70;75.60;;;;;;4937816;29;20047;-82
2020/12/28 11:56:36;;;;;;;22.75;12.68;;;-3.70;76.60;;;;;;4937941;29;20035;-80
2020/12/28 11:59:03;;;;;;;18.85;12.20;;;-3.70;76.10;;;;;;4921101;29;20020;-82
2020/12/28 12:01:29;;;;;;;26.80;14.95;;;-3.70;76.30;;;;;;4938689;29;20074;-80
2020/12/28 12:03:55;;;;;;;23.90;12.95;;;-3.70;76.60;;;;;;4937741;29;20032;-80
2020/12/28 12:06:22;;;;;;;18.65;12.30;;;-3.70;76.60;;;;;;4937598;29;20048;-81
2020/12/28 12:11:34;;;;;;;18.30;12.95;;;-3.80;76.90;;;;;;4938222;29;20114;-80
2020/12/28 12:14:00;;;;;;;19.20;12.20;;;-3.80;77.00;;;;;;4932598;29;20389;-80
2020/12/28 12:16:42;;;;;;;28.20;12.68;;;-3.80;77.20;;;;;;4938506;29;20034;-81
2020/12/28 12:19:08;;;;;;;19.05;12.13;;;-3.90;77.30;;;;;;4931578;29;20104;-81
2020/12/28 12:21:34;;;;;;;22.67;13.80;;;-3.90;77.50;;;;;;4919802;29;20202;-81
2020/12/28 12:24:00;;;;;;;17.90;12.38;;;-3.90;77.60;;;;;;4936880;29;20031;-81
2020/12/28 12:26:27;;;;;;;19.08;11.32;;;-4.00;77.80;;;;;;4937146;29;20047;-81
2020/12/28 12:28:53;;;;;;;;;;;-4.00;77.90;;;;;;4920770;29;20130;-81
2020/12/28 12:31:20;;;;;;;17.75;10.45;;;-4.00;77.90;;;;;;4937232;29;19994;-81
2020/12/28 12:33:46;;;;;;;13.20;8.57;;;-4.10;78.20;;;;;;4936452;29;20192;-81
2020/12/28 12:36:13;;;;;;;26.48;15.80;;;-4.20;78.30;;;;;;4936988;29;20031;-81